createdAt,value
2023-08-03T00:00:51.958Z,14.51
2023-08-03T00:03:20.439Z,14.33
2023-08-03T00:05:49.075Z,14.28
2023-08-03T00:08:17.685Z,14.32
2023-08-03T00:10:46.041Z,14.28
2023-08-03T00:13:14.519Z,14.39
2023-08-03T00:15:46.761Z,14.49
2023-08-03T00:18:15.124Z,14.53
2023-08-03T00:20:43.513Z,14.47
2023-08-03T00:23:11.855Z,14.57
2023-08-03T00:25:40.640Z,14.79
2023-08-03T00:28:09.279Z,14.86
2023-08-03T00:30:37.610Z,14.81
2023-08-03T00:33:07.409Z,14.74
2023-08-03T00:35:35.735Z,14.75
2023-08-03T00:38:04.366Z,14.78
2023-08-03T00:40:33.125Z,14.77
2023-08-03T00:43:05.379Z,14.63
2023-08-03T00:45:34.275Z,14.64
2023-08-03T00:48:02.850Z,14.47
2023-08-03T00:50:33.665Z,14.19
2023-08-03T00:53:02.150Z,13.97
2023-08-03T00:55:31.020Z,13.90
2023-08-03T00:57:59.896Z,13.81
2023-08-03T01:00:28.304Z,13.61
2023-08-03T01:02:56.788Z,13.48
2023-08-03T01:05:27.057Z,13.38
2023-08-03T01:07:58.004Z,13.37
2023-08-03T01:10:27.141Z,13.19
2023-08-03T01:12:55.959Z,13.01
2023-08-03T01:15:24.761Z,12.92
2023-08-03T01:17:53.529Z,12.81
2023-08-03T01:20:26.032Z,12.61
2023-08-03T01:22:55.724Z,12.58
2023-08-03T01:25:27.192Z,12.44
2023-08-03T01:27:55.798Z,12.59
2023-08-03T01:30:24.440Z,12.56
2023-08-03T01:32:53.434Z,12.58
2023-08-03T01:35:22.065Z,12.44
2023-08-03T01:37:52.998Z,12.45
2023-08-03T01:40:23.712Z,12.53
2023-08-03T01:42:52.327Z,12.44
2023-08-03T01:45:21.013Z,12.64
2023-08-03T01:47:49.709Z,12.82
2023-08-03T01:50:18.262Z,12.84
2023-08-03T01:52:49.264Z,12.88
2023-08-03T01:55:17.685Z,12.78
2023-08-03T01:57:48.058Z,12.74
2023-08-03T02:00:16.875Z,12.60
2023-08-03T02:02:49.091Z,12.60
2023-08-03T02:05:21.310Z,12.53
2023-08-03T02:07:54.911Z,12.47
2023-08-03T02:10:25.843Z,12.52
2023-08-03T02:12:55.646Z,12.55
2023-08-03T02:15:26.645Z,12.17
2023-08-03T02:17:55.665Z,12.11
2023-08-03T02:20:24.029Z,12.03
2023-08-03T02:22:52.369Z,11.88
2023-08-03T02:25:24.805Z,11.87
2023-08-03T02:27:55.233Z,11.92
2023-08-03T02:30:23.962Z,12.03
2023-08-03T02:32:52.923Z,12.00
2023-08-03T02:35:24.473Z,12.00
2023-08-03T02:37:54.337Z,12.12
2023-08-03T02:40:23.358Z,12.29
2023-08-03T02:42:52.545Z,12.54
2023-08-03T02:45:22.741Z,12.54
2023-08-03T02:47:53.327Z,12.37
2023-08-03T02:50:24.432Z,12.15
2023-08-03T02:52:57.619Z,11.95
2023-08-03T02:55:26.732Z,11.92
2023-08-03T02:57:58.033Z,11.70
2023-08-03T03:00:28.482Z,11.79
2023-08-03T03:02:57.969Z,11.69
2023-08-03T03:05:35.578Z,11.51
2023-08-03T03:08:04.439Z,11.47
2023-08-03T03:10:34.285Z,11.54
2023-08-03T03:13:02.785Z,11.44
2023-08-03T03:15:32.982Z,11.36
2023-08-03T03:18:02.760Z,11.29
2023-08-03T03:20:31.946Z,11.30
2023-08-03T03:23:01.561Z,11.32
2023-08-03T03:25:30.125Z,10.99
2023-08-03T03:28:05.186Z,10.75
2023-08-03T03:30:39.017Z,10.84
2023-08-03T03:33:07.496Z,10.80
2023-08-03T03:35:36.489Z,10.93
2023-08-03T03:38:05.390Z,11.07
2023-08-03T03:40:34.551Z,11.04
2023-08-03T03:43:04.261Z,10.91
2023-08-03T03:45:33.787Z,10.95
2023-08-03T03:48:03.753Z,10.91
2023-08-03T03:50:34.682Z,11.05
2023-08-03T03:53:03.111Z,11.23
2023-08-03T03:55:33.159Z,11.19
2023-08-03T03:58:01.865Z,10.97
2023-08-03T04:00:30.932Z,10.85
2023-08-03T04:02:59.723Z,10.77
2023-08-03T04:05:29.681Z,10.75
2023-08-03T04:07:57.999Z,10.71
2023-08-03T04:10:28.116Z,10.71
2023-08-03T04:12:56.536Z,10.79
2023-08-03T04:15:25.849Z,10.89
2023-08-03T04:17:54.316Z,10.89
2023-08-03T04:20:32.085Z,10.91
2023-08-03T04:23:00.728Z,11.02
2023-08-03T04:25:29.821Z,11.13
2023-08-03T04:28:02.877Z,11.26
2023-08-03T04:30:37.613Z,11.37
2023-08-03T04:33:06.062Z,11.39
2023-08-03T04:35:39.444Z,11.53
2023-08-03T04:38:14.071Z,11.58
2023-08-03T04:40:49.084Z,11.58
2023-08-03T04:43:17.845Z,11.67
2023-08-03T04:45:46.236Z,11.64
2023-08-03T04:48:14.862Z,11.77
2023-08-03T04:50:44.904Z,11.87
2023-08-03T04:53:15.562Z,11.76
2023-08-03T04:55:46.224Z,11.86
2023-08-03T04:58:15.292Z,11.98
2023-08-03T05:00:46.710Z,12.04
2023-08-03T05:03:15.197Z,12.21
2023-08-03T05:05:46.610Z,12.32
2023-08-03T05:08:18.332Z,12.43
2023-08-03T05:10:46.906Z,12.64
2023-08-03T05:13:18.260Z,12.78
2023-08-03T05:15:46.848Z,12.90
2023-08-03T05:18:15.657Z,12.95
2023-08-03T05:20:45.527Z,13.00
2023-08-03T05:23:14.651Z,13.07
2023-08-03T05:25:42.986Z,13.20
2023-08-03T05:28:11.622Z,13.20
2023-08-03T05:30:40.077Z,13.36
2023-08-03T05:33:08.620Z,13.46
2023-08-03T05:35:37.105Z,13.54
2023-08-03T05:38:07.252Z,13.63
2023-08-03T05:40:36.040Z,13.70
2023-08-03T05:43:11.321Z,13.77
2023-08-03T05:45:44.252Z,13.80
2023-08-03T05:48:17.427Z,13.87
2023-08-03T05:50:47.529Z,13.89
2023-08-03T05:53:18.905Z,13.98
2023-08-03T05:56:05.476Z,14.07
2023-08-03T05:58:38.681Z,14.12
2023-08-03T06:01:08.233Z,14.29
2023-08-03T06:03:45.989Z,14.39
2023-08-03T06:06:19.544Z,14.65
2023-08-03T06:08:52.603Z,15.12
2023-08-03T06:13:54.326Z,16.13
2023-08-03T06:16:24.942Z,16.40
2023-08-03T06:18:55.574Z,16.74
2023-08-03T06:21:25.812Z,17.14
2023-08-03T06:23:58.961Z,17.26
2023-08-03T06:26:29.763Z,17.68
2023-08-03T06:29:00.042Z,17.68
2023-08-03T06:31:36.313Z,17.80
2023-08-03T06:34:05.434Z,18.04
2023-08-03T06:36:36.409Z,18.11
2023-08-03T06:39:06.467Z,18.27
2023-08-03T06:41:36.729Z,18.45
2023-08-03T06:44:05.754Z,18.46
2023-08-03T06:46:34.283Z,18.66
2023-08-03T06:49:05.056Z,19.08
2023-08-03T06:51:33.918Z,18.97
2023-08-03T06:54:04.085Z,18.95
2023-08-03T06:56:33.842Z,19.02
2023-08-03T06:59:02.615Z,19.15
2023-08-03T07:01:31.194Z,19.22
2023-08-03T07:03:59.763Z,19.35
2023-08-03T07:06:28.680Z,19.23
2023-08-03T07:08:57.205Z,19.53
2023-08-03T07:11:25.608Z,20.02
2023-08-03T07:13:55.650Z,20.28
2023-08-03T07:16:24.606Z,20.19
2023-08-03T07:18:53.442Z,20.27
2023-08-03T07:21:22.133Z,20.20
2023-08-03T07:23:50.837Z,20.47
2023-08-03T07:26:19.524Z,19.94
2023-08-03T07:28:50.380Z,20.15
2023-08-03T07:31:20.290Z,20.39
2023-08-03T07:33:49.089Z,20.57
2023-08-03T07:36:19.508Z,20.56
2023-08-03T07:38:48.649Z,20.37
2023-08-03T07:41:17.076Z,20.48
2023-08-03T07:43:46.060Z,20.69
2023-08-03T07:46:14.735Z,20.52
2023-08-03T07:48:44.614Z,20.55
2023-08-03T07:51:14.491Z,21.08
2023-08-03T07:53:44.399Z,21.19
2023-08-03T07:56:17.123Z,21.20
2023-08-03T07:58:45.832Z,21.13
2023-08-03T08:01:14.633Z,21.39
2023-08-03T08:03:45.029Z,21.54
2023-08-03T08:06:17.507Z,21.42
2023-08-03T08:08:46.773Z,21.72
2023-08-03T08:11:18.160Z,21.65
2023-08-03T08:13:47.145Z,21.85
2023-08-03T08:16:17.915Z,21.99
2023-08-03T08:18:47.752Z,21.99
2023-08-03T08:21:16.531Z,21.90
2023-08-03T08:23:45.416Z,22.16
2023-08-03T08:26:15.870Z,22.41
2023-08-03T08:29:01.282Z,22.35
2023-08-03T08:34:04.357Z,22.48
2023-08-03T08:36:33.299Z,22.55
2023-08-03T08:39:02.024Z,22.99
2023-08-03T08:41:31.259Z,22.60
2023-08-03T08:43:59.672Z,22.95
2023-08-03T08:46:28.270Z,22.85
2023-08-03T08:48:56.953Z,22.93
2023-08-03T09:01:51.533Z,23.46
2023-08-03T09:04:32.110Z,23.61
2023-08-03T09:07:03.741Z,23.60
2023-08-03T09:09:37.921Z,23.65
2023-08-03T09:12:10.679Z,23.87
2023-08-03T09:14:51.750Z,24.22
2023-08-03T09:17:21.807Z,23.67
2023-08-03T09:25:08.417Z,23.80
2023-08-03T09:30:14.947Z,24.04
2023-08-03T09:35:19.899Z,24.03
2023-08-03T09:37:50.729Z,23.85
2023-08-03T09:40:21.234Z,23.87
2023-08-03T09:42:50.570Z,23.33
2023-08-03T09:47:52.971Z,24.32
2023-08-03T09:50:21.989Z,24.32
2023-08-03T09:52:55.447Z,24.44
2023-08-03T09:55:30.431Z,24.06
2023-08-03T09:58:10.038Z,24.64
2023-08-03T10:00:40.204Z,24.48
2023-08-03T10:03:14.080Z,23.30
2023-08-03T10:05:53.682Z,23.22
2023-08-03T10:08:29.814Z,23.96
2023-08-03T10:11:01.871Z,24.37
2023-08-03T10:13:35.538Z,24.53
2023-08-03T10:16:04.650Z,24.91
2023-08-03T10:21:09.280Z,24.98
2023-08-03T10:23:40.417Z,25.25
2023-08-03T10:26:09.508Z,25.15
2023-08-03T10:28:48.894Z,25.07
2023-08-03T10:31:22.127Z,25.31
2023-08-03T10:34:10.114Z,26.09
2023-08-03T10:36:50.682Z,26.16
2023-08-03T10:39:49.898Z,24.57
2023-08-03T10:42:27.907Z,23.56
2023-08-03T10:45:19.259Z,24.32
2023-08-03T10:47:47.726Z,23.29
2023-08-03T10:50:16.568Z,23.01
2023-08-03T10:52:44.971Z,23.18
2023-08-03T10:55:27.920Z,24.62
2023-08-03T10:57:57.149Z,25.10
2023-08-03T11:00:25.739Z,25.19
2023-08-03T11:02:54.504Z,24.68
2023-08-03T11:05:23.108Z,24.69
2023-08-03T11:07:51.617Z,25.01
2023-08-03T11:10:20.375Z,25.45
2023-08-03T11:12:53.744Z,25.82
2023-08-03T11:15:22.420Z,25.72
2023-08-03T11:17:52.085Z,25.69
2023-08-03T11:20:21.744Z,24.84
2023-08-03T11:22:50.508Z,24.96
2023-08-03T11:25:21.575Z,25.20
2023-08-03T11:27:53.541Z,25.22
2023-08-03T11:30:22.859Z,25.21
2023-08-03T11:32:59.830Z,25.46
2023-08-03T11:35:28.579Z,25.78
2023-08-03T11:37:57.049Z,26.04
2023-08-03T11:40:26.618Z,25.72
2023-08-03T11:42:56.997Z,25.66
2023-08-03T11:45:25.716Z,25.63
2023-08-03T11:47:55.336Z,25.24
2023-08-03T11:50:28.327Z,24.88
2023-08-03T11:53:09.562Z,25.31
2023-08-03T11:55:47.910Z,25.45
2023-08-03T11:58:16.797Z,25.36
2023-08-03T12:00:47.659Z,25.35
2023-08-03T12:03:31.995Z,25.36
2023-08-03T12:06:09.040Z,25.85
2023-08-03T12:08:47.059Z,25.85
2023-08-03T12:11:24.725Z,25.84
2023-08-03T12:13:55.662Z,25.61
2023-08-03T12:16:24.114Z,25.03
2023-08-03T12:18:52.866Z,25.12
2023-08-03T12:21:21.638Z,25.47
2023-08-03T12:23:50.249Z,25.69
2023-08-03T12:26:18.642Z,25.70
2023-08-03T12:28:46.958Z,26.31
2023-08-03T12:31:16.977Z,26.18
2023-08-03T12:33:45.579Z,25.48
2023-08-03T12:36:14.737Z,25.66
2023-08-03T12:38:43.167Z,25.63
2023-08-03T12:41:11.995Z,25.70
2023-08-03T12:43:40.366Z,25.45
2023-08-03T12:46:09.335Z,25.63
2023-08-03T12:48:39.243Z,25.96
2023-08-03T12:51:08.209Z,25.46
2023-08-03T12:53:36.624Z,25.73
2023-08-03T12:56:05.363Z,25.61
2023-08-03T12:58:33.722Z,25.68
2023-08-03T13:01:02.472Z,25.98
2023-08-03T13:03:30.896Z,25.38
2023-08-03T13:06:00.799Z,25.55
2023-08-03T13:08:29.204Z,25.72
2023-08-03T13:10:57.765Z,25.99
2023-08-03T13:13:26.485Z,26.16
2023-08-03T13:15:55.026Z,25.94
2023-08-03T13:18:24.520Z,26.37
2023-08-03T13:23:31.487Z,26.62
2023-08-03T13:26:00.349Z,26.68
2023-08-03T13:28:28.770Z,26.11
2023-08-03T13:30:59.244Z,25.59
2023-08-03T13:33:28.093Z,25.33
2023-08-03T13:35:56.762Z,25.81
2023-08-03T13:38:26.503Z,25.89
2023-08-03T13:40:59.109Z,25.82
2023-08-03T13:43:27.544Z,25.98
2023-08-03T13:45:56.074Z,25.77
2023-08-03T13:48:24.617Z,24.96
2023-08-03T13:50:53.571Z,24.89
2023-08-03T13:53:21.935Z,24.52
2023-08-03T13:55:50.314Z,25.00
2023-08-03T14:00:51.644Z,25.46
2023-08-03T14:03:34.505Z,25.66
2023-08-03T14:09:12.120Z,26.09
2023-08-03T14:11:23.824Z,25.57
2023-08-03T14:18:56.977Z,25.50
2023-08-03T14:21:51.360Z,24.90
2023-08-03T14:26:53.706Z,25.54
2023-08-03T14:29:23.576Z,25.74
2023-08-03T14:31:52.107Z,25.79
2023-08-03T14:34:21.067Z,26.14
2023-08-03T14:36:49.635Z,25.95
2023-08-03T14:39:18.384Z,25.73
2023-08-03T14:41:49.709Z,26.08
2023-08-03T14:44:25.734Z,26.42
2023-08-03T14:47:01.719Z,26.55
2023-08-03T14:49:30.491Z,26.84
2023-08-03T14:54:30.595Z,26.78
2023-08-03T14:56:59.098Z,26.07
2023-08-03T14:59:27.625Z,25.95
2023-08-03T15:02:02.218Z,25.84
2023-08-03T15:04:31.316Z,25.84
2023-08-03T15:07:06.603Z,26.19
2023-08-03T15:09:35.335Z,26.27
2023-08-03T15:12:04.660Z,26.12
2023-08-03T15:14:34.948Z,25.72
2023-08-03T15:17:24.201Z,25.67
2023-08-03T15:22:27.091Z,24.81
2023-08-03T15:24:56.772Z,24.98
2023-08-03T15:27:26.515Z,24.86
2023-08-03T15:29:56.912Z,24.99
2023-08-03T15:35:02.870Z,24.99
2023-08-03T15:37:35.019Z,25.12
2023-08-03T15:40:05.160Z,24.90
2023-08-03T15:42:36.671Z,25.12
2023-08-03T15:45:12.407Z,25.01
2023-08-03T15:48:18.994Z,25.05
2023-08-03T15:50:36.713Z,25.00
2023-08-03T15:53:27.384Z,24.83
2023-08-03T15:58:28.649Z,24.70
2023-08-03T16:00:58.703Z,24.56
2023-08-03T16:03:28.778Z,24.88
2023-08-03T16:05:59.349Z,24.38
2023-08-03T16:08:27.789Z,24.51
2023-08-03T16:11:01.597Z,24.55
2023-08-03T16:13:30.840Z,24.58
2023-08-03T16:16:03.144Z,24.64
2023-08-03T16:18:34.633Z,24.68
2023-08-03T16:21:07.121Z,24.69
2023-08-03T16:23:36.241Z,24.61
2023-08-03T16:26:11.028Z,24.04
2023-08-03T16:28:39.568Z,24.03
2023-08-03T16:31:16.308Z,24.10
2023-08-03T16:33:47.027Z,24.34
2023-08-03T16:36:16.922Z,24.56
2023-08-03T16:38:46.436Z,24.26
2023-08-03T16:41:15.557Z,24.39
2023-08-03T16:43:44.320Z,24.32
2023-08-03T16:46:13.235Z,24.09
2023-08-03T16:48:41.998Z,23.98
2023-08-03T16:51:11.923Z,23.98
2023-08-03T16:53:40.321Z,23.94
2023-08-03T16:56:08.620Z,24.08
2023-08-03T16:58:37.061Z,23.94
2023-08-03T17:01:05.912Z,23.94
2023-08-03T17:03:34.768Z,23.87
2023-08-03T17:06:03.460Z,23.88
2023-08-03T17:08:33.216Z,23.68
2023-08-03T17:11:01.656Z,23.51
2023-08-03T17:13:30.322Z,23.40
2023-08-03T17:16:05.039Z,23.29
2023-08-03T17:18:34.107Z,23.46
2023-08-03T17:21:03.253Z,23.28
2023-08-03T17:23:33.642Z,23.07
2023-08-03T17:26:03.033Z,23.03
2023-08-03T17:28:31.475Z,22.96
2023-08-03T17:31:04.327Z,22.87
2023-08-03T17:33:33.027Z,22.98
2023-08-03T17:36:18.163Z,23.17
2023-08-03T17:38:50.494Z,22.89
2023-08-03T17:41:18.853Z,22.77
2023-08-03T17:43:47.622Z,22.69
2023-08-03T17:46:16.503Z,22.76
2023-08-03T17:48:45.438Z,22.67
2023-08-03T17:51:13.954Z,22.67
2023-08-03T17:53:45.884Z,22.47
2023-08-03T17:56:19.062Z,22.42
2023-08-03T17:58:50.504Z,22.48
2023-08-03T18:01:22.026Z,22.33
2023-08-03T18:03:51.387Z,22.12
2023-08-03T18:06:27.294Z,22.06
2023-08-03T18:08:57.565Z,21.96
2023-08-03T18:11:27.691Z,21.85
2023-08-03T18:13:56.403Z,21.64
2023-08-03T18:16:24.885Z,21.52
2023-08-03T18:18:53.454Z,21.42
2023-08-03T18:21:27.213Z,21.61
2023-08-03T18:23:57.446Z,21.55
2023-08-03T18:26:27.926Z,21.60
2023-08-03T18:28:57.689Z,21.38
2023-08-03T18:31:26.383Z,21.47
2023-08-03T18:33:55.492Z,21.42
2023-08-03T18:36:23.996Z,21.23
2023-08-03T18:38:54.644Z,21.06
2023-08-03T18:41:27.882Z,20.98
2023-08-03T18:43:57.462Z,20.82
2023-08-03T18:46:27.254Z,20.70
2023-08-03T18:48:57.033Z,20.57
2023-08-03T18:51:25.980Z,20.72
2023-08-03T18:53:54.600Z,20.70
2023-08-03T18:56:27.504Z,20.73
2023-08-03T18:58:58.436Z,20.80
2023-08-03T19:01:30.019Z,20.69
2023-08-03T19:04:01.766Z,20.70
2023-08-03T19:06:30.347Z,20.69
2023-08-03T19:08:58.740Z,20.62
2023-08-03T19:11:28.579Z,20.58
2023-08-03T19:13:59.052Z,20.49
2023-08-03T19:16:29.348Z,20.48
2023-08-03T19:18:58.304Z,20.41
2023-08-03T19:21:26.846Z,20.32
2023-08-03T19:23:55.573Z,19.98
2023-08-03T19:26:24.509Z,19.62
2023-08-03T19:28:54.626Z,18.90
2023-08-03T19:31:25.787Z,18.43
2023-08-03T19:33:54.648Z,18.43
2023-08-03T19:36:23.163Z,17.93
2023-08-03T19:38:51.593Z,17.61
2023-08-03T19:41:20.829Z,17.49
2023-08-03T19:43:49.239Z,17.42
2023-08-03T19:46:19.002Z,17.17
2023-08-03T19:48:47.637Z,16.78
2023-08-03T19:53:47.942Z,16.40
2023-08-03T20:06:26.256Z,15.90
2023-08-03T20:08:56.246Z,16.18
2023-08-03T20:11:25.004Z,16.16
2023-08-03T20:13:56.757Z,16.20
2023-08-03T20:21:30.504Z,16.01
2023-08-03T20:23:59.907Z,15.94
2023-08-03T20:26:35.439Z,15.92
2023-08-03T20:29:06.013Z,15.87
2023-08-03T20:31:36.294Z,15.87
2023-08-03T20:36:36.838Z,15.73
2023-08-03T20:39:17.338Z,16.01
2023-08-03T20:41:54.596Z,16.31
2023-08-03T20:45:00.056Z,16.35
2023-08-03T20:49:46.321Z,16.49
2023-08-03T20:52:17.512Z,16.64
2023-08-03T20:54:46.547Z,16.97
2023-08-03T20:57:15.261Z,16.95
2023-08-03T20:59:43.966Z,16.41
2023-08-03T21:02:12.456Z,16.02
2023-08-03T21:04:42.411Z,15.72
2023-08-03T21:07:10.892Z,15.54
2023-08-03T21:09:40.306Z,15.61
2023-08-03T21:12:09.978Z,15.73
2023-08-03T21:14:38.461Z,15.61
2023-08-03T21:17:07.181Z,15.45
2023-08-03T21:19:37.618Z,15.34
2023-08-03T21:22:07.777Z,15.16
2023-08-03T21:24:36.488Z,15.10
2023-08-03T21:27:05.588Z,14.98
2023-08-03T21:29:34.051Z,14.84
2023-08-03T21:32:02.746Z,14.92
2023-08-03T21:34:31.306Z,14.91
2023-08-03T21:36:59.725Z,14.93
2023-08-03T21:39:29.840Z,14.98
2023-08-03T21:41:58.530Z,14.88
2023-08-03T21:44:27.317Z,14.92
2023-08-03T21:46:56.092Z,14.91
2023-08-03T21:49:24.835Z,14.91
2023-08-03T21:51:53.371Z,14.85
2023-08-03T21:54:22.288Z,14.81
2023-08-03T21:56:52.067Z,14.68
2023-08-03T21:59:23.062Z,14.54
2023-08-03T22:01:52.094Z,14.40
2023-08-03T22:04:20.704Z,14.28
2023-08-03T22:06:49.285Z,14.23
2023-08-03T22:09:18.397Z,14.32
2023-08-03T22:11:47.443Z,14.43
2023-08-03T22:14:17.819Z,14.48
2023-08-03T22:16:46.293Z,14.54
2023-08-03T22:19:14.849Z,14.61
2023-08-03T22:21:44.403Z,14.46
2023-08-03T22:24:13.044Z,14.57
2023-08-03T22:26:41.826Z,14.66
2023-08-03T22:29:10.756Z,14.70
2023-08-03T22:31:40.681Z,14.75
2023-08-03T22:34:09.133Z,14.81
2023-08-03T22:36:38.041Z,14.82
2023-08-03T22:39:07.012Z,14.80
2023-08-03T22:41:35.573Z,14.79
2023-08-03T22:44:04.735Z,14.80
2023-08-03T22:46:33.539Z,14.78
2023-08-03T22:49:03.297Z,14.68
2023-08-03T22:51:32.000Z,14.71
2023-08-03T22:54:00.376Z,14.72
2023-08-03T22:56:29.165Z,14.60
2023-08-03T22:58:57.900Z,14.66
2023-08-03T23:01:27.025Z,14.67
2023-08-03T23:03:56.045Z,14.69
2023-08-03T23:06:27.009Z,14.61
2023-08-03T23:08:57.048Z,14.68
2023-08-03T23:11:26.643Z,14.76
2023-08-03T23:13:59.144Z,14.66
2023-08-03T23:16:27.959Z,14.56
2023-08-03T23:18:56.477Z,14.63
2023-08-03T23:21:26.186Z,14.69
2023-08-03T23:23:54.683Z,14.62
2023-08-03T23:26:24.972Z,14.70
2023-08-03T23:28:53.876Z,14.60
2023-08-03T23:31:22.320Z,14.45
2023-08-03T23:33:50.877Z,14.40
2023-08-03T23:36:19.674Z,14.27
2023-08-03T23:38:49.518Z,14.26
2023-08-03T23:41:19.974Z,14.28
2023-08-03T23:43:50.134Z,14.34
2023-08-03T23:46:19.068Z,14.43
2023-08-03T23:48:47.813Z,14.46
2023-08-03T23:51:16.267Z,14.41
2023-08-03T23:53:45.016Z,14.35
2023-08-03T23:56:14.979Z,14.29
2023-08-03T23:58:43.310Z,14.29
